Roseto, Pennsylvania
Current Conditions -  °F | °C
As of 2:51 PM on Saturday 25 Oct 2014 (Local Time) from KABE Reporting Station
Clear Clear  
Wind Chill: 68°   Ceiling: Unl
Heat Index: 68°   Visibility: 10mi
Dew Point: 41°   Wind: 15mph
Humidity: 37%   Direction: 260°W
Pressure: 29.73"   Gusts: 21mph
Location:  40.8463°N, 75.1731°W
Report Text: KABE 251851Z AUTO 26013G18KT 10SM CLR 20/05 A2973 RMK AO2 SLP068 T02000050 TSNO
Loading
Personal Weather Stations






























Interactive Weather Map New forecast layout! Learn more

10-Day Weather Forecast

Advertisements
Track Severe Weather on mobile